createdAt,value
2018-02-09T00:02:17.571Z,9.47
2018-02-09T00:04:45.193Z,9.63
2018-02-09T00:07:12.812Z,9.87
2018-02-09T00:09:41.216Z,9.83
2018-02-09T00:15:12.361Z,9.83
2018-02-09T00:17:40.053Z,9.30
2018-02-09T00:20:07.703Z,9.40
2018-02-09T00:22:47.261Z,10.37
2018-02-09T00:25:14.911Z,8.97
2018-02-09T00:27:43.490Z,8.77
2018-02-09T00:30:11.500Z,9.77
2018-02-09T00:32:39.130Z,9.30
2018-02-09T00:35:06.761Z,10.17
2018-02-09T00:37:34.407Z,9.97
2018-02-09T00:40:02.037Z,9.17
2018-02-09T00:42:29.688Z,9.90
2018-02-09T00:44:58.113Z,9.67
2018-02-09T00:47:25.773Z,9.27
2018-02-09T00:49:53.818Z,10.03
2018-02-09T00:52:22.233Z,9.30
2018-02-09T00:54:49.865Z,9.50
2018-02-09T00:57:18.314Z,10.20
2018-02-09T00:59:45.952Z,9.57
2018-02-09T01:02:13.614Z,9.10
2018-02-09T01:04:41.241Z,9.40
2018-02-09T01:07:10.159Z,9.50
2018-02-09T01:09:37.801Z,9.77
2018-02-09T01:12:06.201Z,9.07
2018-02-09T01:14:33.829Z,9.33
2018-02-09T01:17:01.462Z,9.13
2018-02-09T01:19:29.080Z,9.70
2018-02-09T01:21:58.420Z,9.63
2018-02-09T01:24:26.074Z,9.67
2018-02-09T01:26:53.706Z,9.53
2018-02-09T01:29:21.333Z,9.80
2018-02-09T01:31:48.969Z,9.07
2018-02-09T01:34:16.604Z,9.27
2018-02-09T01:36:44.237Z,9.33
2018-02-09T01:39:11.896Z,9.20
2018-02-09T01:41:41.517Z,9.13
2018-02-09T01:44:09.122Z,9.20
2018-02-09T01:46:36.769Z,9.17
2018-02-09T01:49:04.405Z,9.67
2018-02-09T01:51:32.046Z,9.40
2018-02-09T01:53:59.673Z,9.20
2018-02-09T01:56:27.335Z,9.53
2018-02-09T01:58:54.920Z,10.47
2018-02-09T02:01:23.353Z,9.83
2018-02-09T02:03:50.984Z,9.23
2018-02-09T02:06:19.416Z,9.30
2018-02-09T02:08:47.050Z,9.67
2018-02-09T02:11:14.688Z,9.30
2018-02-09T02:13:43.076Z,8.70
2018-02-09T02:16:11.480Z,8.60
2018-02-09T02:18:39.432Z,9.43
2018-02-09T02:21:07.069Z,9.60
2018-02-09T02:23:34.691Z,9.00
2018-02-09T02:26:02.317Z,9.23
2018-02-09T02:28:29.946Z,9.27
2018-02-09T02:30:58.393Z,9.60
2018-02-09T02:33:27.169Z,9.57
2018-02-09T02:35:54.813Z,9.03
2018-02-09T02:38:22.445Z,9.83
2018-02-09T02:40:50.088Z,9.13
2018-02-09T02:43:18.487Z,8.40
2018-02-09T02:45:46.113Z,9.20
2018-02-09T02:48:13.744Z,10.00
2018-02-09T02:50:41.379Z,8.77
2018-02-09T02:53:09.037Z,8.47
2018-02-09T02:55:36.663Z,8.73
2018-02-09T02:58:04.296Z,8.70
2018-02-09T03:00:32.684Z,8.80
2018-02-09T03:03:00.323Z,8.97
2018-02-09T03:05:27.949Z,8.63
2018-02-09T03:07:55.563Z,8.93
2018-02-09T03:10:23.193Z,9.00
2018-02-09T03:12:50.842Z,9.27
2018-02-09T03:15:18.473Z,8.93
2018-02-09T03:17:56.333Z,9.10
2018-02-09T03:20:24.733Z,8.77
2018-02-09T03:22:52.363Z,9.30
2018-02-09T03:25:19.988Z,8.60
2018-02-09T03:27:47.616Z,9.20
2018-02-09T03:30:15.235Z,9.10
2018-02-09T03:32:42.865Z,8.67
2018-02-09T03:35:11.253Z,9.07
2018-02-09T03:37:38.877Z,8.73
2018-02-09T03:40:07.216Z,8.70
2018-02-09T03:42:34.854Z,8.80
2018-02-09T03:45:03.248Z,8.73
2018-02-09T03:47:30.887Z,9.23
2018-02-09T03:49:58.509Z,8.00
2018-02-09T03:52:26.836Z,8.50
2018-02-09T03:54:55.533Z,8.70
2018-02-09T03:57:23.229Z,9.07
2018-02-09T03:59:50.868Z,8.47
2018-02-09T04:02:19.262Z,9.03
2018-02-09T04:04:47.647Z,8.43
2018-02-09T04:07:16.029Z,8.93
2018-02-09T04:09:43.684Z,9.10
2018-02-09T04:12:12.112Z,8.93
2018-02-09T04:14:39.749Z,8.60
2018-02-09T04:17:07.402Z,8.60
2018-02-09T04:19:35.806Z,9.27
2018-02-09T04:22:03.428Z,9.07
2018-02-09T04:24:31.082Z,8.87
2018-02-09T04:26:58.725Z,9.23
2018-02-09T04:29:26.361Z,8.87
2018-02-09T04:31:54.250Z,9.13
2018-02-09T04:34:21.903Z,8.63
2018-02-09T04:36:50.405Z,8.30
2018-02-09T04:39:19.992Z,8.50
2018-02-09T04:41:48.381Z,8.43
2018-02-09T04:44:16.013Z,8.83
2018-02-09T04:46:43.645Z,8.63
2018-02-09T04:49:11.273Z,8.40
2018-02-09T04:51:39.673Z,8.57
2018-02-09T04:54:07.298Z,8.23
2018-02-09T04:56:34.944Z,8.73
2018-02-09T04:59:10.181Z,8.63
2018-02-09T05:01:37.804Z,7.83
2018-02-09T05:04:05.453Z,7.93
2018-02-09T05:06:33.112Z,8.17
2018-02-09T05:09:00.747Z,8.33
2018-02-09T05:11:28.401Z,8.10
2018-02-09T05:13:56.345Z,7.70
2018-02-09T05:16:23.954Z,7.80
2018-02-09T05:21:48.745Z,8.53
2018-02-09T05:24:16.370Z,8.33
2018-02-09T05:29:37.156Z,8.10
2018-02-09T05:32:04.785Z,8.60
2018-02-09T05:34:32.425Z,8.50
2018-02-09T05:37:04.355Z,8.80
2018-02-09T05:39:31.987Z,8.67
2018-02-09T05:41:59.632Z,11.27
2018-02-09T05:44:33.180Z,10.90
2018-02-09T05:47:00.840Z,10.07
2018-02-09T05:49:28.472Z,9.63
2018-02-09T05:51:56.100Z,10.10
2018-02-09T05:54:23.726Z,9.23
2018-02-09T05:56:51.369Z,10.33
2018-02-09T05:59:19.033Z,10.47
2018-02-09T06:01:46.688Z,9.23
2018-02-09T06:04:14.310Z,9.73
2018-02-09T06:06:41.949Z,9.33
2018-02-09T06:09:10.357Z,8.47
2018-02-09T06:11:38.000Z,8.83
2018-02-09T06:14:05.622Z,9.30
2018-02-09T06:16:34.008Z,8.27
2018-02-09T06:19:01.656Z,8.97
2018-02-09T06:21:29.322Z,8.47
2018-02-09T06:23:57.002Z,8.80
2018-02-09T06:26:24.636Z,8.43
2018-02-09T06:28:52.261Z,8.87
2018-02-09T06:33:27.662Z,8.97
2018-02-09T06:35:55.345Z,8.93
2018-02-09T06:38:22.961Z,9.00
2018-02-09T06:40:50.612Z,10.33
2018-02-09T06:43:18.256Z,9.63
2018-02-09T06:45:45.895Z,8.93
2018-02-09T06:48:13.557Z,8.50
2018-02-09T06:50:41.247Z,9.10
2018-02-09T06:53:08.890Z,9.07
2018-02-09T06:55:36.552Z,8.80
2018-02-09T06:58:04.208Z,8.07
2018-02-09T07:00:31.931Z,8.50
2018-02-09T07:02:59.557Z,7.90
2018-02-09T07:05:27.196Z,7.97
2018-02-09T07:07:54.839Z,8.87
2018-02-09T07:10:23.286Z,8.80
2018-02-09T07:12:51.219Z,8.43
2018-02-09T07:15:18.867Z,8.20
2018-02-09T07:17:47.180Z,8.80
2018-02-09T07:20:17.881Z,8.47
2018-02-09T07:22:46.302Z,7.50
2018-02-09T07:25:13.947Z,8.30
2018-02-09T07:27:41.692Z,8.00
2018-02-09T07:30:09.244Z,8.00
2018-02-09T07:32:36.902Z,7.83
2018-02-09T07:35:04.541Z,8.53
2018-02-09T07:37:32.178Z,7.73
2018-02-09T07:39:59.864Z,8.33
2018-02-09T07:42:27.504Z,8.17
2018-02-09T07:44:55.891Z,7.93
2018-02-09T07:47:24.304Z,8.33
2018-02-09T07:49:51.962Z,7.70
2018-02-09T07:52:19.599Z,8.37
2018-02-09T07:54:48.008Z,8.00
2018-02-09T07:57:15.664Z,8.37
2018-02-09T07:59:44.069Z,8.40
2018-02-09T08:02:11.712Z,8.40
2018-02-09T08:04:39.366Z,8.57
2018-02-09T08:07:07.010Z,8.90
2018-02-09T08:09:34.639Z,8.67
2018-02-09T08:12:03.049Z,8.00
2018-02-09T08:14:30.695Z,8.30
2018-02-09T08:16:58.334Z,8.30
2018-02-09T08:19:25.987Z,8.40
2018-02-09T08:21:53.614Z,8.40
2018-02-09T08:24:21.303Z,8.27
2018-02-09T08:26:48.890Z,8.03
2018-02-09T08:29:17.303Z,8.63
2018-02-09T08:31:44.950Z,8.20
2018-02-09T08:34:13.361Z,7.87
2018-02-09T08:36:41.002Z,8.53
2018-02-09T08:39:08.655Z,8.07
2018-02-09T08:41:37.072Z,8.40
2018-02-09T08:44:04.710Z,7.60
2018-02-09T08:46:32.346Z,8.73
2018-02-09T08:48:59.982Z,8.60
2018-02-09T08:51:27.606Z,8.00
2018-02-09T08:53:56.012Z,8.57
2018-02-09T08:56:23.646Z,8.23
2018-02-09T08:58:51.315Z,8.13
2018-02-09T09:01:18.975Z,8.80
2018-02-09T09:03:46.610Z,8.73
2018-02-09T09:06:14.272Z,8.53
2018-02-09T09:08:41.900Z,8.30
2018-02-09T09:11:10.310Z,8.30
2018-02-09T09:13:37.932Z,8.33
2018-02-09T09:16:05.573Z,8.30
2018-02-09T09:18:33.214Z,8.77
2018-02-09T09:21:01.634Z,8.40
2018-02-09T09:23:29.290Z,8.20
2018-02-09T09:25:56.933Z,8.77
2018-02-09T09:28:24.625Z,7.73
2018-02-09T09:30:52.256Z,8.20
2018-02-09T09:33:19.883Z,8.43
2018-02-09T09:35:47.524Z,8.27
2018-02-09T09:38:15.156Z,8.97
2018-02-09T09:40:42.787Z,8.33
2018-02-09T09:43:10.426Z,8.80
2018-02-09T09:45:38.061Z,8.87
2018-02-09T09:48:05.704Z,8.87
2018-02-09T09:50:33.377Z,8.40
2018-02-09T09:53:01.027Z,8.40
2018-02-09T09:55:28.661Z,7.87
2018-02-09T09:57:56.290Z,8.53
2018-02-09T10:00:23.929Z,8.00
2018-02-09T10:02:51.555Z,8.20
2018-02-09T10:05:19.204Z,8.33
2018-02-09T10:07:46.836Z,7.70
2018-02-09T10:10:15.250Z,8.60
2018-02-09T10:12:42.906Z,8.53
2018-02-09T10:15:10.614Z,8.37
2018-02-09T10:17:38.228Z,7.77
2018-02-09T10:20:05.873Z,8.07
2018-02-09T10:22:33.521Z,8.50
2018-02-09T10:25:01.184Z,8.10
2018-02-09T10:27:28.852Z,8.93
2018-02-09T10:29:56.498Z,8.10
2018-02-09T10:32:24.187Z,8.33
2018-02-09T10:34:51.820Z,8.13
2018-02-09T10:37:19.447Z,8.63
2018-02-09T10:39:47.889Z,8.30
2018-02-09T10:42:15.528Z,8.83
2018-02-09T10:44:43.173Z,9.60
2018-02-09T10:47:11.565Z,8.73
2018-02-09T10:49:39.228Z,8.70
2018-02-09T10:52:06.883Z,8.90
2018-02-09T10:54:35.292Z,8.50
2018-02-09T10:57:02.971Z,8.43
2018-02-09T10:59:30.610Z,9.17
2018-02-09T11:01:59.041Z,8.70
2018-02-09T11:04:26.703Z,8.87
2018-02-09T11:06:54.335Z,8.87
2018-02-09T11:09:22.746Z,9.30
2018-02-09T11:11:50.395Z,8.23
2018-02-09T11:14:18.048Z,9.23
2018-02-09T11:16:46.463Z,11.13
2018-02-09T11:19:14.127Z,11.00
2018-02-09T11:21:41.828Z,11.33
2018-02-09T11:24:09.445Z,11.20
2018-02-09T11:26:37.117Z,10.43
2018-02-09T11:29:05.567Z,10.60
2018-02-09T11:31:33.236Z,10.13
2018-02-09T11:34:00.911Z,9.77
2018-02-09T11:36:28.539Z,10.90
2018-02-09T11:38:56.231Z,10.33
2018-02-09T11:41:23.885Z,10.87
2018-02-09T11:43:51.550Z,13.60
2018-02-09T11:46:19.194Z,21.47
2018-02-09T11:48:46.895Z,17.40
2018-02-09T11:51:14.518Z,29.77
2018-02-09T11:53:42.182Z,42.27
2018-02-09T11:56:09.829Z,81.90
2018-02-09T11:58:37.485Z,182.20
2018-02-09T12:01:05.912Z,246.80
2018-02-09T12:03:33.548Z,276.17
2018-02-09T12:06:01.197Z,221.33
2018-02-09T12:08:29.602Z,230.07
2018-02-09T12:10:57.260Z,240.27
2018-02-09T12:13:24.916Z,227.87
2018-02-09T12:15:52.574Z,223.27
2018-02-09T12:18:20.240Z,216.00
2018-02-09T12:20:47.884Z,208.33
2018-02-09T12:23:15.550Z,210.27
2018-02-09T12:25:43.197Z,213.60
2018-02-09T12:28:10.853Z,195.03
2018-02-09T12:30:38.501Z,196.40
2018-02-09T12:33:06.163Z,201.83
2018-02-09T12:35:33.813Z,195.30
2018-02-09T12:38:01.504Z,205.43
2018-02-09T12:40:29.937Z,188.67
2018-02-09T12:42:57.605Z,182.73
2018-02-09T12:45:25.290Z,195.83
2018-02-09T12:47:52.997Z,179.63
2018-02-09T12:50:20.659Z,177.93
2018-02-09T12:52:49.072Z,168.90
2018-02-09T12:55:16.746Z,181.80
2018-02-09T12:57:44.396Z,181.83
2018-02-09T13:00:12.055Z,178.03
2018-02-09T13:02:39.766Z,176.73
2018-02-09T13:05:07.412Z,172.93
2018-02-09T13:07:35.083Z,184.37
2018-02-09T13:10:03.727Z,175.37
2018-02-09T13:12:43.396Z,178.13
2018-02-09T13:15:11.062Z,157.17
2018-02-09T13:17:38.735Z,169.97
2018-02-09T13:20:06.478Z,163.17
2018-02-09T13:22:46.056Z,164.57
2018-02-09T13:25:13.733Z,157.47
2018-02-09T13:27:41.417Z,156.53
2018-02-09T13:30:09.154Z,151.80
2018-02-09T13:32:48.618Z,144.97
2018-02-09T13:35:16.260Z,142.40
2018-02-09T13:37:43.958Z,136.70
2018-02-09T13:40:11.638Z,137.77
2018-02-09T13:42:39.309Z,131.57
2018-02-09T13:45:07.004Z,132.57
2018-02-09T13:47:35.470Z,127.37
2018-02-09T13:50:03.104Z,125.93
2018-02-09T13:52:30.763Z,122.43
2018-02-09T13:54:58.426Z,122.13
2018-02-09T13:57:26.124Z,117.97
2018-02-09T13:59:53.851Z,117.23
2018-02-09T14:02:21.667Z,117.33
2018-02-09T14:04:50.101Z,106.57
2018-02-09T14:07:17.844Z,106.43
2018-02-09T14:09:46.331Z,102.27
2018-02-09T14:12:14.006Z,100.17
2018-02-09T14:14:41.818Z,96.97
2018-02-09T14:17:09.878Z,95.77
2018-02-09T14:19:37.569Z,95.27
2018-02-09T14:22:05.221Z,92.43
2018-02-09T14:24:32.889Z,92.67
2018-02-09T14:27:00.621Z,91.43
2018-02-09T14:29:28.368Z,89.80
2018-02-09T14:31:55.976Z,86.23
2018-02-09T14:34:23.698Z,85.43
2018-02-09T14:36:51.381Z,78.07
2018-02-09T14:39:19.070Z,82.67
2018-02-09T14:41:46.773Z,81.53
2018-02-09T14:44:14.411Z,82.30
2018-02-09T14:46:42.129Z,79.20
2018-02-09T14:49:09.929Z,75.77
2018-02-09T14:51:38.348Z,75.17
2018-02-09T14:54:06.018Z,74.20
2018-02-09T14:56:33.682Z,70.83
2018-02-09T14:59:02.383Z,73.53
2018-02-09T15:01:31.529Z,69.57
2018-02-09T15:03:59.233Z,68.23
2018-02-09T15:06:27.042Z,66.27
2018-02-09T15:08:54.720Z,64.70
2018-02-09T15:11:22.562Z,65.37
2018-02-09T15:13:51.785Z,63.43
2018-02-09T15:16:19.499Z,62.23
2018-02-09T15:18:47.239Z,61.00
2018-02-09T15:21:14.905Z,61.63
2018-02-09T15:23:42.579Z,58.03
2018-02-09T15:26:11.010Z,57.00
2018-02-09T15:28:38.690Z,59.13
2018-02-09T15:31:06.332Z,50.60
2018-02-09T15:33:34.018Z,54.97
2018-02-09T15:36:01.724Z,51.00
2018-02-09T15:38:30.248Z,50.67
2018-02-09T15:40:57.962Z,50.83
2018-02-09T15:43:25.648Z,48.47
2018-02-09T15:45:54.107Z,47.17
2018-02-09T15:48:21.779Z,48.00
2018-02-09T15:50:49.440Z,45.53
2018-02-09T15:53:17.106Z,44.63
2018-02-09T15:55:44.786Z,43.73
2018-02-09T15:58:12.490Z,44.20
2018-02-09T16:00:40.286Z,42.03
2018-02-09T16:03:08.181Z,41.67
2018-02-09T16:05:35.892Z,39.33
2018-02-09T16:08:04.319Z,39.07
2018-02-09T16:10:31.964Z,39.17
2018-02-09T16:13:01.409Z,39.10
2018-02-09T16:15:29.091Z,38.17
2018-02-09T16:17:56.848Z,37.87
2018-02-09T16:20:24.570Z,36.73
2018-02-09T16:22:54.164Z,36.97
2018-02-09T16:25:22.607Z,35.53
2018-02-09T16:27:50.270Z,35.03
2018-02-09T16:34:40.803Z,28.30
2018-02-09T16:37:09.184Z,27.90
2018-02-09T16:39:37.576Z,32.07
2018-02-09T16:42:17.816Z,34.07
2018-02-09T16:46:35.469Z,24.03
2018-02-09T16:49:03.089Z,32.37
2018-02-09T16:54:35.486Z,29.30
2018-02-09T16:57:03.115Z,22.27
2018-02-09T16:59:30.752Z,27.13
2018-02-09T17:01:59.179Z,21.00
2018-02-09T17:10:04.822Z,25.73
2018-02-09T17:12:33.237Z,21.37
2018-02-09T17:15:00.888Z,24.63
2018-02-09T17:17:28.516Z,25.60
2018-02-09T17:19:56.140Z,19.87
2018-02-09T17:22:23.768Z,27.93
2018-02-09T17:24:52.170Z,25.43
2018-02-09T17:27:19.795Z,20.27
2018-02-09T17:29:47.419Z,24.53
2018-02-09T17:32:15.044Z,23.97
2018-02-09T17:34:43.427Z,20.77
2018-02-09T17:37:11.820Z,26.37
2018-02-09T17:39:39.448Z,25.07
2018-02-09T17:42:07.083Z,23.83
2018-02-09T17:44:35.864Z,24.27
2018-02-09T17:47:03.488Z,18.47
2018-02-09T17:49:31.125Z,24.23
2018-02-09T17:51:58.742Z,24.10
2018-02-09T17:54:27.160Z,19.20
2018-02-09T17:56:54.792Z,23.30
2018-02-09T17:59:39.856Z,24.07
2018-02-09T18:02:08.271Z,18.23
2018-02-09T18:04:35.904Z,22.17
2018-02-09T18:07:04.412Z,38.57
2018-02-09T18:09:32.044Z,20.83
2018-02-09T18:11:59.708Z,23.93
2018-02-09T18:14:27.344Z,17.60
2018-02-09T18:16:54.987Z,24.23
2018-02-09T18:19:22.630Z,18.93
2018-02-09T18:21:51.018Z,24.10
2018-02-09T18:24:19.404Z,20.67
2018-02-09T18:26:47.058Z,18.87
2018-02-09T18:29:15.438Z,18.83
2018-02-09T18:31:43.853Z,24.57
2018-02-09T18:34:11.550Z,19.93
2018-02-09T18:36:40.070Z,18.97
2018-02-09T18:39:07.692Z,26.67
2018-02-09T18:41:35.324Z,19.33
2018-02-09T18:44:02.954Z,19.13
2018-02-09T18:46:30.592Z,28.50
2018-02-09T18:48:58.213Z,19.97
2018-02-09T18:51:26.607Z,25.73
2018-02-09T18:53:54.248Z,24.77
2018-02-09T18:56:23.851Z,21.33
2018-02-09T18:58:51.536Z,21.17
2018-02-09T19:01:19.202Z,21.37
2018-02-09T19:03:47.616Z,25.73
2018-02-09T19:06:15.232Z,22.03
2018-02-09T19:08:42.856Z,21.90
2018-02-09T19:11:10.489Z,24.20
2018-02-09T19:13:38.127Z,21.33
2018-02-09T19:16:05.764Z,29.60
2018-02-09T19:18:33.396Z,21.03
2018-02-09T19:21:01.031Z,19.53
2018-02-09T19:23:28.656Z,21.40
2018-02-09T19:25:56.295Z,26.93
2018-02-09T19:28:33.603Z,21.77
2018-02-09T19:31:01.224Z,19.63
2018-02-09T19:33:29.633Z,21.23
2018-02-09T19:35:57.290Z,20.93
2018-02-09T19:38:25.684Z,18.50
2018-02-09T19:40:53.307Z,20.07
2018-02-09T19:43:20.932Z,19.57
2018-02-09T19:45:48.575Z,23.40
2018-02-09T19:48:16.195Z,19.53
2018-02-09T19:50:43.831Z,19.43
2018-02-09T19:53:11.456Z,17.43
2018-02-09T19:55:39.081Z,19.30
2018-02-09T19:58:06.713Z,18.57
2018-02-09T20:00:34.335Z,17.58
2018-02-09T20:03:03.466Z,22.52
2018-02-09T20:05:31.860Z,17.70
2018-02-09T20:08:16.808Z,17.43
2018-02-09T20:10:45.199Z,16.93
2018-02-09T20:13:12.836Z,21.43
2018-02-09T20:15:40.461Z,15.93
2018-02-09T20:18:08.087Z,15.90
2018-02-09T20:20:36.497Z,16.23
2018-02-09T20:23:04.235Z,14.73
2018-02-09T20:25:32.636Z,18.47
2018-02-09T20:28:00.264Z,14.20
2018-02-09T20:30:27.901Z,17.33
2018-02-09T20:32:55.530Z,15.73
2018-02-09T20:35:23.915Z,15.17
2018-02-09T20:37:51.544Z,13.20
2018-02-09T20:40:19.190Z,15.23
2018-02-09T20:42:46.809Z,14.87
2018-02-09T20:45:15.184Z,14.77
2018-02-09T20:47:43.770Z,16.20
2018-02-09T20:50:12.172Z,14.17
2018-02-09T20:52:39.809Z,16.00
2018-02-09T20:55:07.494Z,14.90
2018-02-09T20:57:35.455Z,18.33
2018-02-09T21:00:03.877Z,16.57
2018-02-09T21:02:31.509Z,16.13
2018-02-09T21:04:59.902Z,16.27
2018-02-09T21:07:28.291Z,19.63
2018-02-09T21:09:55.911Z,15.10
2018-02-09T21:12:23.552Z,13.63
2018-02-09T21:14:51.189Z,14.70
2018-02-09T21:17:19.576Z,15.03
2018-02-09T21:19:47.225Z,14.27
2018-02-09T21:22:15.617Z,16.27
2018-02-09T21:24:43.244Z,15.70
2018-02-09T21:27:10.872Z,14.80
2018-02-09T21:29:49.504Z,13.77
2018-02-09T21:32:17.141Z,14.87
2018-02-09T21:34:44.777Z,18.63
2018-02-09T21:37:12.427Z,14.87
2018-02-09T21:39:40.040Z,15.40
2018-02-09T21:42:07.672Z,14.00
2018-02-09T21:44:35.315Z,14.73
2018-02-09T21:47:03.703Z,13.83
2018-02-09T21:49:31.328Z,14.43
2018-02-09T21:51:58.955Z,15.03
2018-02-09T21:54:26.599Z,14.50
2018-02-09T21:56:54.216Z,14.60
2018-02-09T21:59:21.854Z,15.10
2018-02-09T22:01:49.476Z,14.03
2018-02-09T22:04:17.125Z,14.63
2018-02-09T22:06:44.752Z,14.47
2018-02-09T22:09:12.424Z,15.30
2018-02-09T22:11:40.052Z,15.67
2018-02-09T22:14:08.441Z,13.80
2018-02-09T22:16:36.068Z,15.03
2018-02-09T22:19:03.707Z,15.50
2018-02-09T22:21:31.336Z,14.20
2018-02-09T22:23:58.967Z,14.47
2018-02-09T22:26:26.598Z,15.23
2018-02-09T22:28:54.224Z,15.53
2018-02-09T22:31:21.865Z,13.90
2018-02-09T22:33:49.496Z,13.50
2018-02-09T22:36:17.132Z,14.20
2018-02-09T22:38:44.753Z,15.17
2018-02-09T22:41:13.160Z,13.93
2018-02-09T22:43:40.783Z,14.97
2018-02-09T22:46:08.432Z,14.30
2018-02-09T22:48:36.056Z,13.27
2018-02-09T22:51:03.713Z,14.33
2018-02-09T22:53:31.357Z,14.80
2018-02-09T22:55:58.976Z,14.83
2018-02-09T22:58:27.388Z,15.10
2018-02-09T23:00:55.029Z,14.20
2018-02-09T23:03:22.660Z,15.37
2018-02-09T23:05:50.302Z,13.73
2018-02-09T23:08:18.693Z,14.67
2018-02-09T23:10:47.109Z,15.77
2018-02-09T23:13:14.749Z,16.33
2018-02-09T23:15:43.144Z,16.87
2018-02-09T23:18:10.768Z,16.70
2018-02-09T23:20:38.400Z,16.43
2018-02-09T23:23:06.024Z,15.63
2018-02-09T23:25:34.439Z,15.73
2018-02-09T23:28:04.008Z,15.97
2018-02-09T23:30:31.632Z,15.13
2018-02-09T23:32:59.257Z,14.87
2018-02-09T23:35:27.669Z,17.53
2018-02-09T23:37:55.292Z,15.50
2018-02-09T23:40:22.984Z,17.10
2018-02-09T23:42:50.559Z,15.13
2018-02-09T23:45:18.184Z,14.70
2018-02-09T23:47:45.816Z,15.27
2018-02-09T23:50:13.443Z,15.40
2018-02-09T23:52:41.076Z,15.67
2018-02-09T23:55:08.701Z,14.63
2018-02-09T23:57:36.335Z,16.20
